Time;durP1;ratioP1;P1;durP2;ratioP2;P2;SDS_P1;SDS_P2;PMS_P1;PMS_P2;Temp;Humidity;BMP_temperature;BMP_pressure;BME280_temperature;BME280_humidity;BME280_pressure;Samples;Min_cycle;Max_cycle;Signal;HPM_P1;HPM_P2
2022/02/07 00:01:32;;;;;;;1.63;1.30;;;;;;;;;;5056979;28;20059;-75
2022/02/07 00:04:03;;;;;;;1.52;1.08;;;;;;;;;;5057457;28;20048;-76
2022/02/07 00:06:31;;;;;;;1.45;1.25;;;;;;;;;;5055775;28;20498;-75
2022/02/07 00:08:58;;;;;;;2.63;1.92;;;;;;;;;;5057199;28;20033;-75
2022/02/07 00:11:23;;;;;;;2.75;1.08;;;;;;;;;;5057184;28;20036;-75
2022/02/07 00:13:50;;;;;;;1.70;1.38;;;;;;;;;;5056898;28;20033;-75
2022/02/07 00:16:15;;;;;;;1.55;1.10;;;;;;;;;;5056224;28;20406;-75
2022/02/07 00:18:41;;;;;;;1.88;1.20;;;;;;;;;;5056687;28;20025;-75
2022/02/07 00:21:06;;;;;;;1.20;1.10;;;;;;;;;;5056524;28;20477;-75
2022/02/07 00:23:32;;;;;;;1.33;1.10;;;;;;;;;;5056901;28;20132;-75
2022/02/07 00:25:58;;;;;;;1.17;1.08;;;;;;;;;;5056663;28;20029;-74
2022/02/07 00:28:23;;;;;;;2.67;1.80;;;;;;;;;;5056725;28;20044;-75
2022/02/07 00:30:55;;;;;;;2.90;1.65;;;;;;;;;;5056764;28;20074;-76
2022/02/07 00:33:21;;;;;;;1.17;1.08;;;;;;;;;;5056717;28;20383;-75
2022/02/07 00:35:48;;;;;;;2.58;1.20;;;;;;;;;;5055163;28;20025;-75
2022/02/07 00:38:18;;;;;;;1.13;0.98;;;;;;;;;;5071816;28;20028;-74
2022/02/07 00:43:36;;;;;;;1.40;1.17;;;;;;;;;;5055347;28;20025;-75
2022/02/07 00:46:09;;;;;;;2.25;1.27;;;;;;;;;;5055243;28;20108;-75
2022/02/07 00:48:34;;;;;;;2.05;1.80;;;;;;;;;;5071941;28;20570;-75
2022/02/07 00:51:00;;;;;;;4.72;2.40;;;;;;;;;;5071830;28;20475;-75
2022/02/07 00:53:31;;;;;;;2.97;1.65;;;;;;;;;;5053506;28;20009;-75
2022/02/07 00:55:57;;;;;;;2.22;1.30;;;;;;;;;;5054871;28;20037;-75
2022/02/07 00:58:23;;;;;;;0.90;0.60;;;;;;;;;;5054931;28;20017;-76
2022/02/07 01:00:54;;;;;;;2.85;1.70;;;;;;;;;;5071450;28;20025;-76
2022/02/07 01:03:24;;;;;;;1.98;1.45;;;;;;;;;;5071344;28;20025;-75
2022/02/07 01:05:52;;;;;;;4.40;2.15;;;;;;;;;;5054637;28;20123;-75
2022/02/07 01:08:27;;;;;;;2.65;1.60;;;;;;;;;;5071206;28;20040;-75
2022/02/07 01:11:43;;;;;;;2.70;1.92;;;;;;;;;;5054443;28;20029;-75
2022/02/07 01:52:10;;;;;;;6.63;3.05;;;;;;;;;;5053420;28;20021;-68
2022/02/07 01:54:47;;;;;;;6.10;2.78;;;;;;;;;;5070438;28;20025;-68
2022/02/07 01:57:18;;;;;;;3.97;2.30;;;;;;;;;;5053950;28;20036;-68
2022/02/07 01:59:46;;;;;;;1.77;1.50;;;;;;;;;;5053564;28;20170;-68
2022/02/07 02:02:14;;;;;;;3.05;2.00;;;;;;;;;;5053716;28;20024;-69
2022/02/07 02:04:40;;;;;;;2.42;1.83;;;;;;;;;;5053457;28;20481;-69
2022/02/07 02:07:09;;;;;;;4.07;2.15;;;;;;;;;;5053607;28;20107;-68
2022/02/07 02:09:35;;;;;;;5.95;3.13;;;;;;;;;;5054506;28;20029;-68
2022/02/07 02:12:04;;;;;;;3.38;2.42;;;;;;;;;;5053087;28;20523;-68
2022/02/07 02:32:30;;;;;;;2.42;1.90;;;;;;;;;;5032420;28;20495;-69
2022/02/07 02:47:39;;;;;;;1.80;1.52;;;;;;;;;;5052712;28;20040;-68
2022/02/07 02:50:34;;;;;;;2.03;1.23;;;;;;;;;;5052587;28;20017;-68
2022/02/07 02:53:05;;;;;;;1.92;1.75;;;;;;;;;;5069034;28;20029;-68
2022/02/07 02:55:32;;;;;;;3.67;1.50;;;;;;;;;;5069446;28;20040;-68
2022/02/07 02:58:00;;;;;;;2.20;1.63;;;;;;;;;;5052449;28;20040;-68
2022/02/07 03:00:27;;;;;;;2.40;1.73;;;;;;;;;;5052651;28;20416;-68
2022/02/07 03:02:53;;;;;;;2.55;1.45;;;;;;;;;;5053723;28;20025;-68
2022/02/07 03:05:18;;;;;;;2.15;1.85;;;;;;;;;;5052538;28;20032;-69
2022/02/07 03:07:46;;;;;;;1.60;1.48;;;;;;;;;;5053574;28;20471;-69
2022/02/07 03:10:22;;;;;;;1.42;1.33;;;;;;;;;;5053783;28;20363;-69
2022/02/07 03:13:00;;;;;;;1.58;1.48;;;;;;;;;;5052257;28;20048;-69
2022/02/07 03:18:11;;;;;;;1.65;1.48;;;;;;;;;;5051926;28;20028;-68
2022/02/07 03:20:36;;;;;;;1.63;1.42;;;;;;;;;;5052188;28;20021;-68
2022/02/07 03:23:02;;;;;;;2.35;1.60;;;;;;;;;;5068716;28;20025;-68
2022/02/07 03:25:28;;;;;;;2.75;1.20;;;;;;;;;;5052355;28;20017;-69
2022/02/07 03:28:00;;;;;;;1.50;1.40;;;;;;;;;;5068865;28;20414;-69
2022/02/07 03:30:35;;;;;;;1.58;1.30;;;;;;;;;;5052060;28;20036;-69
2022/02/07 03:33:03;;;;;;;2.38;1.70;;;;;;;;;;5068538;28;20178;-69
2022/02/07 03:35:29;;;;;;;1.67;1.58;;;;;;;;;;5051804;28;20017;-69
2022/02/07 03:37:55;;;;;;;3.20;1.52;;;;;;;;;;5068548;28;20402;-68
2022/02/07 03:40:24;;;;;;;1.42;1.33;;;;;;;;;;5068798;28;20036;-68
2022/02/07 03:42:50;;;;;;;2.00;1.88;;;;;;;;;;5068721;28;20017;-68
2022/02/07 03:45:15;;;;;;;1.98;1.83;;;;;;;;;;5052130;28;20025;-69
2022/02/07 03:47:53;;;;;;;1.80;1.70;;;;;;;;;;5068893;28;20133;-69
2022/02/07 03:50:23;;;;;;;1.88;1.77;;;;;;;;;;5068858;28;20086;-69
2022/02/07 03:52:53;;;;;;;3.20;2.38;;;;;;;;;;5051954;28;20069;-68
2022/02/07 03:55:20;;;;;;;2.10;1.25;;;;;;;;;;5053093;28;20024;-68
2022/02/07 03:57:46;;;;;;;2.83;1.95;;;;;;;;;;5051842;28;20471;-68
2022/02/07 04:00:13;;;;;;;1.98;1.38;;;;;;;;;;5051633;28;20120;-69
2022/02/07 04:02:45;;;;;;;1.67;1.58;;;;;;;;;;5053628;28;20475;-67
2022/02/07 04:07:47;;;;;;;3.53;1.67;;;;;;;;;;5052010;28;20040;-67
2022/02/07 04:10:14;;;;;;;2.88;1.98;;;;;;;;;;5051972;28;20018;-68
2022/02/07 04:12:46;;;;;;;1.85;1.50;;;;;;;;;;5068535;28;20025;-67
2022/02/07 04:15:16;;;;;;;2.35;2.15;;;;;;;;;;5067797;28;20041;-68
2022/02/07 04:17:47;;;;;;;2.97;1.73;;;;;;;;;;5068483;28;20036;-67
2022/02/07 04:20:12;;;;;;;1.73;1.63;;;;;;;;;;5052857;28;20075;-67
2022/02/07 04:22:48;;;;;;;3.83;1.92;;;;;;;;;;5051505;28;20024;-68
2022/02/07 04:25:30;;;;;;;2.75;2.28;;;;;;;;;;5051432;28;20063;-68
2022/02/07 04:28:17;;;;;;;2.42;2.22;;;;;;;;;;5057704;28;20045;-69
2022/02/07 04:30:43;;;;;;;2.20;2.00;;;;;;;;;;5075273;28;20035;-69
2022/02/07 04:33:09;;;;;;;3.13;2.60;;;;;;;;;;5069208;28;20044;-68
2022/02/07 04:35:35;;;;;;;2.60;2.40;;;;;;;;;;5074072;28;20068;-68
2022/02/07 04:38:01;;;;;;;2.75;2.45;;;;;;;;;;5062969;28;20028;-69
2022/02/07 04:40:27;;;;;;;2.28;2.08;;;;;;;;;;5063736;28;20017;-68
2022/02/07 04:42:53;;;;;;;2.60;2.20;;;;;;;;;;5064440;28;20450;-68
2022/02/07 04:48:21;;;;;;;2.40;2.20;;;;;;;;;;5067097;28;20036;-68
2022/02/07 04:51:03;;;;;;;1.52;1.42;;;;;;;;;;5067035;28;20033;-68
2022/02/07 05:04:00;;;;;;;2.05;1.88;;;;;;;;;;5074695;28;20032;-69
2022/02/07 05:14:47;;;;;;;3.55;3.10;;;;;;;;;;5074493;28;20040;-68
2022/02/07 05:17:16;;;;;;;4.28;3.33;;;;;;;;;;5074508;28;20040;-68
2022/02/07 05:20:05;;;;;;;5.90;4.57;;;;;;;;;;5069257;28;20102;-68
2022/02/07 05:22:39;;;;;;;7.28;5.13;;;;;;;;;;5074344;28;20115;-68
2022/02/07 05:25:14;;;;;;;11.95;6.65;;;;;;;;;;5075620;28;20394;-68
2022/02/07 05:28:02;;;;;;;9.23;5.53;;;;;;;;;;5073786;28;20036;-68
2022/02/07 05:30:38;;;;;;;4.43;3.92;;;;;;;;;;5074287;28;20031;-68
2022/02/07 05:33:10;;;;;;;3.80;3.40;;;;;;;;;;5074218;28;20127;-68
2022/02/07 05:35:56;;;;;;;4.95;4.55;;;;;;;;;;5074190;28;20036;-68
2022/02/07 05:38:42;;;;;;;4.80;3.88;;;;;;;;;;5059704;28;20027;-68
2022/02/07 05:41:19;;;;;;;5.75;4.05;;;;;;;;;;5073611;28;20111;-68
2022/02/07 05:44:08;;;;;;;5.30;3.88;;;;;;;;;;5069480;28;20071;-68
2022/02/07 05:46:52;;;;;;;6.95;3.97;;;;;;;;;;5075273;28;20089;-68
2022/02/07 05:49:35;;;;;;;3.88;2.60;;;;;;;;;;5075050;28;20129;-68
2022/02/07 05:52:19;;;;;;;3.38;2.40;;;;;;;;;;5075054;28;20059;-68
2022/02/07 05:55:15;;;;;;;3.67;2.45;;;;;;;;;;5064773;28;20036;-69
2022/02/07 05:57:55;;;;;;;1.45;1.17;;;;;;;;;;5059401;28;20035;-68
2022/02/07 06:00:39;;;;;;;3.97;2.33;;;;;;;;;;5075329;28;20082;-68
2022/02/07 06:03:12;;;;;;;2.35;2.15;;;;;;;;;;5073195;28;20024;-69
2022/02/07 06:05:42;;;;;;;1.30;1.20;;;;;;;;;;5073518;28;20067;-69
2022/02/07 06:08:16;;;;;;;2.05;1.80;;;;;;;;;;5073297;28;20040;-69
2022/02/07 06:10:43;;;;;;;1.40;1.30;;;;;;;;;;5073521;28;20032;-69
2022/02/07 06:13:14;;;;;;;1.80;1.67;;;;;;;;;;5073132;28;20108;-69
2022/02/07 06:15:40;;;;;;;1.38;1.20;;;;;;;;;;5072287;28;20033;-70
2022/02/07 06:18:06;;;;;;;1.10;1.00;;;;;;;;;;5073246;28;20470;-68
2022/02/07 06:20:33;;;;;;;2.08;1.30;;;;;;;;;;5056702;28;20379;-69
2022/02/07 06:22:59;;;;;;;1.02;0.80;;;;;;;;;;5072958;28;20028;-69
2022/02/07 06:25:25;;;;;;;0.80;0.80;;;;;;;;;;5056423;28;20024;-69
2022/02/07 06:27:52;;;;;;;1.42;0.85;;;;;;;;;;5072825;28;20035;-69
2022/02/07 06:30:25;;;;;;;1.08;0.73;;;;;;;;;;5072777;28;20036;-69
2022/02/07 06:32:50;;;;;;;0.95;0.88;;;;;;;;;;5072162;28;20368;-69
2022/02/07 06:35:17;;;;;;;1.73;0.95;;;;;;;;;;5072463;28;20023;-69
2022/02/07 06:37:49;;;;;;;1.10;0.80;;;;;;;;;;5056035;28;20024;-69
2022/02/07 06:40:15;;;;;;;0.80;0.68;;;;;;;;;;5072390;28;20414;-69
2022/02/07 06:42:41;;;;;;;0.70;0.70;;;;;;;;;;5072392;28;20024;-69
2022/02/07 06:45:07;;;;;;;0.80;0.80;;;;;;;;;;5072322;28;20043;-69
2022/02/07 06:47:34;;;;;;;1.15;1.05;;;;;;;;;;5072326;28;20423;-69
2022/02/07 06:49:59;;;;;;;0.88;0.80;;;;;;;;;;5072450;28;20067;-69
2022/02/07 06:52:25;;;;;;;1.08;0.93;;;;;;;;;;5071536;28;20020;-69
2022/02/07 06:54:51;;;;;;;1.45;1.10;;;;;;;;;;5072356;28;20032;-69
2022/02/07 06:57:20;;;;;;;1.50;0.90;;;;;;;;;;5072317;28;20536;-69
2022/02/07 06:59:47;;;;;;;1.77;1.08;;;;;;;;;;5072141;28;20027;-69
2022/02/07 07:02:14;;;;;;;1.75;1.40;;;;;;;;;;5072423;28;20027;-68
2022/02/07 07:04:40;;;;;;;2.30;1.25;;;;;;;;;;5072570;28;20534;-68
2022/02/07 07:07:06;;;;;;;2.03;1.10;;;;;;;;;;5072579;28;20509;-68
2022/02/07 07:09:33;;;;;;;1.70;1.33;;;;;;;;;;5072581;28;20040;-68
2022/02/07 07:12:07;;;;;;;2.13;1.17;;;;;;;;;;5055865;28;20040;-68
2022/02/07 07:14:44;;;;;;;1.33;1.23;;;;;;;;;;5056525;28;20025;-68
2022/02/07 07:17:11;;;;;;;6.20;1.80;;;;;;;;;;5071816;28;20056;-68
2022/02/07 07:19:43;;;;;;;3.95;2.20;;;;;;;;;;5071979;28;20111;-68
2022/02/07 07:22:09;;;;;;;3.85;1.83;;;;;;;;;;5055192;28;20116;-68
2022/02/07 07:24:36;;;;;;;2.58;1.77;;;;;;;;;;5071874;28;20062;-68
2022/02/07 07:27:04;;;;;;;4.03;2.05;;;;;;;;;;5071899;28;20060;-68
2022/02/07 07:29:35;;;;;;;4.50;2.00;;;;;;;;;;5072185;28;20497;-68
2022/02/07 07:32:04;;;;;;;3.70;1.85;;;;;;;;;;5055408;28;20455;-68
2022/02/07 07:34:32;;;;;;;3.25;1.70;;;;;;;;;;5071731;28;20089;-68
2022/02/07 07:37:02;;;;;;;1.83;1.63;;;;;;;;;;5071829;28;20028;-68
2022/02/07 07:39:29;;;;;;;2.38;1.52;;;;;;;;;;5071865;28;20058;-68
2022/02/07 07:41:57;;;;;;;2.30;1.55;;;;;;;;;;5071810;28;20016;-68
2022/02/07 07:44:42;;;;;;;2.65;1.48;;;;;;;;;;5071838;28;20033;-69
2022/02/07 07:47:24;;;;;;;2.40;1.90;;;;;;;;;;5071745;28;20071;-68
2022/02/07 07:50:36;;;;;;;1.95;1.73;;;;;;;;;;5073446;28;20418;-68
2022/02/07 08:03:42;;;;;;;1.23;1.10;;;;;;;;;;5073559;28;20111;-68
2022/02/07 08:08:46;;;;;;;3.08;1.45;;;;;;;;;;5075573;28;20020;-68
2022/02/07 08:11:15;;;;;;;1.98;1.38;;;;;;;;;;5075415;28;20024;-68
2022/02/07 08:13:46;;;;;;;1.35;1.20;;;;;;;;;;5075320;28;20016;-68
2022/02/07 08:16:21;;;;;;;2.42;1.58;;;;;;;;;;5075030;28;20045;-68
2022/02/07 08:18:46;;;;;;;1.63;1.38;;;;;;;;;;5075256;28;20033;-68
2022/02/07 08:21:12;;;;;;;1.55;1.40;;;;;;;;;;5075293;28;20138;-68
2022/02/07 08:23:39;;;;;;;0.73;0.57;;;;;;;;;;5075750;28;20059;-68
2022/02/07 08:26:05;;;;;;;1.67;1.38;;;;;;;;;;5076506;28;20048;-68
2022/02/07 08:28:31;;;;;;;1.60;1.40;;;;;;;;;;5075082;28;20029;-69
2022/02/07 08:30:56;;;;;;;2.17;1.70;;;;;;;;;;5076348;28;20024;-69
2022/02/07 08:33:22;;;;;;;1.55;1.30;;;;;;;;;;5076344;28;20035;-69
2022/02/07 08:35:49;;;;;;;0.95;0.60;;;;;;;;;;5076169;28;20381;-68
2022/02/07 08:38:16;;;;;;;1.42;1.00;;;;;;;;;;5074751;28;20109;-68
2022/02/07 08:40:42;;;;;;;1.70;1.20;;;;;;;;;;5074806;28;20378;-68
2022/02/07 08:43:07;;;;;;;0.90;0.90;;;;;;;;;;5076014;28;20024;-68
2022/02/07 08:45:33;;;;;;;0.70;0.70;;;;;;;;;;5074693;28;20085;-68
2022/02/07 08:47:59;;;;;;;0.68;0.68;;;;;;;;;;5074758;28;20036;-68
2022/02/07 08:50:25;;;;;;;1.00;0.88;;;;;;;;;;5075877;28;20433;-69
2022/02/07 08:52:52;;;;;;;1.38;0.90;;;;;;;;;;5074603;28;20033;-68
2022/02/07 08:55:31;;;;;;;1.10;0.68;;;;;;;;;;5075800;28;20047;-69
2022/02/07 08:58:02;;;;;;;1.08;0.70;;;;;;;;;;5057936;28;20128;-69
2022/02/07 09:08:26;;;;;;;1.20;0.90;;;;;;;;;;5075700;28;20028;-69
2022/02/07 09:10:52;;;;;;;0.88;0.80;;;;;;;;;;5074402;28;20114;-69
2022/02/07 09:13:19;;;;;;;0.80;0.80;;;;;;;;;;5075707;28;20455;-69
2022/02/07 09:16:02;;;;;;;1.65;1.17;;;;;;;;;;5074013;28;20037;-68
2022/02/07 09:18:27;;;;;;;1.27;1.17;;;;;;;;;;5074061;28;20490;-68
2022/02/07 09:20:55;;;;;;;2.38;1.27;;;;;;;;;;5075409;28;20025;-69
2022/02/07 09:23:21;;;;;;;1.23;0.90;;;;;;;;;;5074411;28;20093;-69
2022/02/07 09:25:46;;;;;;;1.55;1.45;;;;;;;;;;5075254;28;20110;-68
2022/02/07 09:28:12;;;;;;;2.72;0.85;;;;;;;;;;5073955;28;20036;-69
2022/02/07 09:30:38;;;;;;;0.77;0.73;;;;;;;;;;5075290;28;20071;-69
2022/02/07 09:33:03;;;;;;;2.00;1.02;;;;;;;;;;5074072;28;20032;-69
2022/02/07 09:35:29;;;;;;;0.77;0.77;;;;;;;;;;5073798;28;20107;-69
2022/02/07 09:37:55;;;;;;;1.20;0.98;;;;;;;;;;5074993;28;20033;-69
2022/02/07 09:40:21;;;;;;;1.30;1.20;;;;;;;;;;5075201;28;20031;-68
2022/02/07 09:42:55;;;;;;;1.20;1.10;;;;;;;;;;5073872;28;20032;-68
2022/02/07 09:45:30;;;;;;;1.75;1.00;;;;;;;;;;5075026;28;20029;-69
2022/02/07 09:47:56;;;;;;;1.77;0.90;;;;;;;;;;5073802;28;20035;-69
2022/02/07 09:50:22;;;;;;;1.08;0.77;;;;;;;;;;5074837;28;20020;-68
2022/02/07 09:52:53;;;;;;;1.10;1.00;;;;;;;;;;5074733;28;20542;-68
2022/02/07 09:55:19;;;;;;;1.10;0.90;;;;;;;;;;5074622;28;20037;-71
2022/02/07 09:57:50;;;;;;;1.33;1.23;;;;;;;;;;5074807;28;20016;-68
2022/02/07 10:00:19;;;;;;;1.60;1.00;;;;;;;;;;5074634;28;20024;-68
2022/02/07 10:02:50;;;;;;;0.85;0.77;;;;;;;;;;5074609;28;20506;-68
2022/02/07 10:05:27;;;;;;;1.33;0.93;;;;;;;;;;5073340;28;20372;-68
2022/02/07 10:15:49;;;;;;;0.70;0.70;;;;;;;;;;5074023;28;20403;-68
2022/02/07 10:18:36;;;;;;;0.98;0.93;;;;;;;;;;5074431;28;20496;-68
2022/02/07 10:46:11;;;;;;;1.02;0.93;;;;;;;;;;5064745;28;20486;-68
2022/02/07 10:48:56;;;;;;;1.13;1.02;;;;;;;;;;5072600;28;20052;-68
2022/02/07 10:51:26;;;;;;;1.50;1.40;;;;;;;;;;5072089;28;20040;-68
2022/02/07 10:53:53;;;;;;;1.17;0.90;;;;;;;;;;5072527;28;20028;-68
2022/02/07 10:56:20;;;;;;;0.98;0.90;;;;;;;;;;5073337;28;20025;-68
2022/02/07 10:58:48;;;;;;;0.75;0.75;;;;;;;;;;5073477;28;20036;-68
2022/02/07 11:01:46;;;;;;;4.05;1.98;;;;;;;;;;5073530;28;20363;-68
2022/02/07 11:04:15;;;;;;;1.70;1.05;;;;;;;;;;5073050;28;20021;-69
2022/02/07 11:06:44;;;;;;;1.45;1.15;;;;;;;;;;5072425;28;20041;-69
2022/02/07 11:23:04;;;;;;;0.98;0.88;;;;;;;;;;5073305;28;20021;-68
2022/02/07 11:27:49;;;;;;;1.40;1.30;;;;;;;;;;5071931;28;20123;-69
2022/02/07 11:30:15;;;;;;;1.88;1.50;;;;;;;;;;5072059;28;20398;-69
2022/02/07 11:35:33;;;;;;;3.10;1.40;;;;;;;;;;5072972;28;20040;-68
2022/02/07 11:38:05;;;;;;;1.02;0.93;;;;;;;;;;5070639;28;20032;-68
2022/02/07 11:40:31;;;;;;;1.67;1.48;;;;;;;;;;5072971;28;20082;-68
2022/02/07 11:43:08;;;;;;;1.67;1.23;;;;;;;;;;5073025;28;20020;-69
2022/02/07 11:45:53;;;;;;;1.65;1.33;;;;;;;;;;5071738;28;20044;-69
2022/02/07 11:48:29;;;;;;;1.65;1.40;;;;;;;;;;5071895;28;20471;-68
2022/02/07 11:51:00;;;;;;;1.70;1.23;;;;;;;;;;5072932;28;20478;-69
2022/02/07 11:53:34;;;;;;;2.17;1.40;;;;;;;;;;5071849;28;20039;-68
2022/02/07 11:56:06;;;;;;;1.05;0.95;;;;;;;;;;5071463;28;20387;-68
2022/02/07 11:58:46;;;;;;;1.60;1.48;;;;;;;;;;5072875;28;20031;-68
2022/02/07 12:01:13;;;;;;;2.40;1.70;;;;;;;;;;5071648;28;20044;-68
2022/02/07 12:03:40;;;;;;;2.25;1.60;;;;;;;;;;5072798;28;20089;-68
2022/02/07 12:06:07;;;;;;;1.20;1.10;;;;;;;;;;5071382;28;20471;-68
2022/02/07 12:08:37;;;;;;;2.45;1.85;;;;;;;;;;5072747;28;20027;-68
2022/02/07 12:11:04;;;;;;;6.68;4.47;;;;;;;;;;5071445;28;20040;-69
2022/02/07 12:13:31;;;;;;;2.33;1.05;;;;;;;;;;5072615;28;20107;-68
2022/02/07 12:15:59;;;;;;;2.65;1.25;;;;;;;;;;5070956;28;20040;-68
2022/02/07 12:18:25;;;;;;;1.48;1.30;;;;;;;;;;5072877;28;20029;-68
2022/02/07 12:20:55;;;;;;;1.90;1.65;;;;;;;;;;5071515;28;20068;-69
2022/02/07 12:23:27;;;;;;;2.40;1.30;;;;;;;;;;5072833;28;20100;-69
2022/02/07 12:25:57;;;;;;;2.85;2.03;;;;;;;;;;5071251;28;20285;-68
2022/02/07 12:28:33;;;;;;;;;;;;;;;;;;5073014;28;20033;-69
2022/02/07 12:33:25;;;;;;;2.30;1.65;;;;;;;;;;5072485;28;20024;-68
2022/02/07 12:35:53;;;;;;;2.00;1.77;;;;;;;;;;5072411;28;20040;-68
2022/02/07 12:38:19;;;;;;;7.63;3.38;;;;;;;;;;5054541;28;20035;-68
2022/02/07 12:40:44;;;;;;;3.58;1.85;;;;;;;;;;5072473;28;20024;-68
2022/02/07 12:43:12;;;;;;;2.95;1.80;;;;;;;;;;5072389;28;20096;-69
2022/02/07 12:45:38;;;;;;;3.17;2.10;;;;;;;;;;5072277;28;20033;-68
2022/02/07 12:48:09;;;;;;;3.50;2.42;;;;;;;;;;5072280;28;20475;-68
2022/02/07 12:50:34;;;;;;;3.65;1.85;;;;;;;;;;5073883;28;20075;-68
2022/02/07 12:53:00;;;;;;;7.40;3.75;;;;;;;;;;5075991;28;20509;-68
2022/02/07 12:55:26;;;;;;;2.95;2.03;;;;;;;;;;5075712;28;20036;-68
2022/02/07 12:57:51;;;;;;;3.58;1.88;;;;;;;;;;5075885;28;20021;-68
2022/02/07 13:00:18;;;;;;;4.07;1.83;;;;;;;;;;5074675;28;20040;-68
2022/02/07 13:02:45;;;;;;;2.65;2.45;;;;;;;;;;5057940;28;20106;-68
2022/02/07 13:05:10;;;;;;;3.05;1.90;;;;;;;;;;5075701;28;20028;-68
2022/02/07 13:07:41;;;;;;;2.90;1.60;;;;;;;;;;5074563;28;20032;-68
2022/02/07 13:10:08;;;;;;;2.40;1.90;;;;;;;;;;5075675;28;20036;-68
2022/02/07 13:12:51;;;;;;;3.83;2.03;;;;;;;;;;5074469;28;20070;-68
2022/02/07 13:15:22;;;;;;;3.13;1.90;;;;;;;;;;5073929;28;20053;-69
2022/02/07 13:17:51;;;;;;;2.05;1.70;;;;;;;;;;5075839;28;20042;-68
2022/02/07 13:20:17;;;;;;;1.80;1.70;;;;;;;;;;5075482;28;20024;-68
2022/02/07 13:22:44;;;;;;;2.72;1.50;;;;;;;;;;5075769;28;20111;-68
2022/02/07 13:25:09;;;;;;;2.55;1.73;;;;;;;;;;5075441;28;20041;-68
2022/02/07 13:27:37;;;;;;;3.15;2.10;;;;;;;;;;5075965;28;20028;-68
2022/02/07 13:30:07;;;;;;;2.50;1.73;;;;;;;;;;5075702;28;20539;-68
2022/02/07 13:32:33;;;;;;;2.50;2.05;;;;;;;;;;5074119;28;20510;-68
2022/02/07 13:35:10;;;;;;;1.67;1.52;;;;;;;;;;5074024;28;20072;-68
2022/02/07 13:37:38;;;;;;;4.45;2.60;;;;;;;;;;5075234;28;20029;-68
2022/02/07 13:40:03;;;;;;;3.90;2.08;;;;;;;;;;5075188;28;20560;-68
2022/02/07 13:42:31;;;;;;;3.30;1.90;;;;;;;;;;5075143;28;20020;-68
2022/02/07 13:44:58;;;;;;;2.00;1.70;;;;;;;;;;5074631;28;20162;-69
2022/02/07 13:47:24;;;;;;;3.60;1.67;;;;;;;;;;5075091;28;20028;-68
2022/02/07 13:49:53;;;;;;;2.15;1.33;;;;;;;;;;5073596;28;20118;-68
2022/02/07 13:52:19;;;;;;;2.42;1.40;;;;;;;;;;5074767;28;20028;-68
2022/02/07 13:54:44;;;;;;;2.00;1.58;;;;;;;;;;5074727;28;20115;-68
2022/02/07 13:57:11;;;;;;;2.28;1.70;;;;;;;;;;5073544;28;20028;-68
2022/02/07 13:59:36;;;;;;;4.60;2.20;;;;;;;;;;5074700;28;20021;-68
2022/02/07 14:02:02;;;;;;;3.00;1.85;;;;;;;;;;5074238;28;20025;-68
2022/02/07 14:04:29;;;;;;;3.92;2.80;;;;;;;;;;5074645;28;20474;-68
2022/02/07 14:07:05;;;;;;;3.45;1.77;;;;;;;;;;5074580;28;20046;-68
2022/02/07 14:09:33;;;;;;;3.28;2.00;;;;;;;;;;5073200;28;20090;-69
2022/02/07 14:12:01;;;;;;;4.70;2.38;;;;;;;;;;5074530;28;20056;-68
2022/02/07 14:14:27;;;;;;;4.10;2.30;;;;;;;;;;5074351;28;20029;-68
2022/02/07 14:16:52;;;;;;;3.97;2.45;;;;;;;;;;5074212;28;20053;-68
2022/02/07 14:19:32;;;;;;;2.55;2.03;;;;;;;;;;5072939;28;20119;-68
2022/02/07 14:21:57;;;;;;;4.07;2.05;;;;;;;;;;5073283;28;20028;-68
2022/02/07 14:24:26;;;;;;;2.17;1.63;;;;;;;;;;5073792;28;20028;-68
2022/02/07 14:26:51;;;;;;;4.38;2.20;;;;;;;;;;5073104;28;20047;-68
2022/02/07 14:29:17;;;;;;;4.40;2.42;;;;;;;;;;5072996;28;20471;-68
2022/02/07 14:31:43;;;;;;;5.57;2.50;;;;;;;;;;5072959;28;20475;-69
2022/02/07 14:34:08;;;;;;;2.75;2.20;;;;;;;;;;5074092;28;20044;-69
2022/02/07 14:36:36;;;;;;;8.35;5.43;;;;;;;;;;5073839;28;20029;-69
2022/02/07 14:39:02;;;;;;;12.63;7.80;;;;;;;;;;5073887;28;20371;-69
2022/02/07 14:41:27;;;;;;;8.50;6.05;;;;;;;;;;5073801;28;20074;-69
2022/02/07 14:43:59;;;;;;;14.75;8.10;;;;;;;;;;5073599;28;20029;-68
2022/02/07 14:46:32;;;;;;;8.40;4.93;;;;;;;;;;5072512;28;20103;-69
2022/02/07 14:48:58;;;;;;;10.98;7.53;;;;;;;;;;5073912;28;20032;-68
2022/02/07 14:51:24;;;;;;;25.27;13.60;;;;;;;;;;5073908;28;20027;-68
2022/02/07 14:53:49;;;;;;;3.17;2.15;;;;;;;;;;5074036;28;20056;-68
2022/02/07 14:56:16;;;;;;;3.38;2.50;;;;;;;;;;5073625;28;20074;-68
2022/02/07 14:58:41;;;;;;;2.80;1.75;;;;;;;;;;5073644;28;20024;-68
2022/02/07 15:01:07;;;;;;;3.05;1.98;;;;;;;;;;5072530;28;20024;-68
2022/02/07 15:03:32;;;;;;;3.92;2.40;;;;;;;;;;5072591;28;20085;-68
2022/02/07 15:05:59;;;;;;;3.95;2.70;;;;;;;;;;5072427;28;20039;-78
2022/02/07 15:08:29;;;;;;;2.70;2.10;;;;;;;;;;5073924;28;20040;-78
2022/02/07 15:10:55;;;;;;;2.73;2.13;;;;;;;;;;5072328;28;20036;-78
2022/02/07 15:13:20;;;;;;;2.90;2.35;;;;;;;;;;5072719;28;20051;-78
2022/02/07 15:15:46;;;;;;;4.63;2.63;;;;;;;;;;5073062;28;20068;-78
2022/02/07 15:18:13;;;;;;;2.80;2.47;;;;;;;;;;5073243;28;20394;-78
2022/02/07 15:20:40;;;;;;;3.95;2.75;;;;;;;;;;5072974;28;20023;-78
2022/02/07 15:23:10;;;;;;;4.15;2.55;;;;;;;;;;5071917;28;20525;-78
2022/02/07 15:25:36;;;;;;;3.00;1.95;;;;;;;;;;5073426;28;20107;-77
2022/02/07 15:28:04;;;;;;;3.15;2.70;;;;;;;;;;5072337;28;20731;-78
2022/02/07 15:30:35;;;;;;;2.80;2.35;;;;;;;;;;5073467;28;20060;-70
2022/02/07 15:33:04;;;;;;;2.97;2.30;;;;;;;;;;5073560;28;20059;-75
2022/02/07 15:35:29;;;;;;;3.78;2.42;;;;;;;;;;5073056;28;20439;-75
2022/02/07 15:37:55;;;;;;;3.90;2.60;;;;;;;;;;5073261;28;20056;-75
2022/02/07 15:40:22;;;;;;;5.93;3.10;;;;;;;;;;5073534;28;20020;-75
2022/02/07 15:42:47;;;;;;;3.83;2.58;;;;;;;;;;5073666;28;20017;-75
2022/02/07 15:45:16;;;;;;;6.65;3.38;;;;;;;;;;5071699;28;20399;-75
2022/02/07 15:47:43;;;;;;;4.22;2.88;;;;;;;;;;5071906;28;20029;-75
2022/02/07 15:50:13;;;;;;;4.35;2.78;;;;;;;;;;5073405;28;20037;-75
2022/02/07 15:52:39;;;;;;;3.70;2.47;;;;;;;;;;5073118;28;20024;-75
2022/02/07 15:55:04;;;;;;;4.15;2.88;;;;;;;;;;5071418;28;20028;-74
2022/02/07 15:57:31;;;;;;;4.07;2.60;;;;;;;;;;5073369;28;20021;-75
2022/02/07 15:59:57;;;;;;;6.32;3.55;;;;;;;;;;5072992;28;20040;-75
2022/02/07 16:02:30;;;;;;;3.53;3.00;;;;;;;;;;5071726;28;20020;-75
2022/02/07 16:04:58;;;;;;;7.15;4.05;;;;;;;;;;5063821;28;20036;-75
2022/02/07 16:07:23;;;;;;;6.40;3.83;;;;;;;;;;5063178;28;20035;-75
2022/02/07 16:09:49;;;;;;;6.13;3.92;;;;;;;;;;5055041;28;20013;-75
2022/02/07 16:12:17;;;;;;;8.35;4.68;;;;;;;;;;5052763;28;20029;-75
2022/02/07 16:14:43;;;;;;;7.25;5.03;;;;;;;;;;5055953;28;20056;-75
2022/02/07 16:17:10;;;;;;;8.35;4.78;;;;;;;;;;5061146;28;20106;-75
2022/02/07 16:19:36;;;;;;;5.20;3.47;;;;;;;;;;5054269;28;20032;-75
2022/02/07 16:22:05;;;;;;;8.25;4.72;;;;;;;;;;5057584;28;20112;-75
2022/02/07 16:24:31;;;;;;;5.40;3.45;;;;;;;;;;5064812;28;20027;-75
2022/02/07 16:26:57;;;;;;;6.85;3.97;;;;;;;;;;5071774;28;20391;-76
2022/02/07 16:29:23;;;;;;;7.75;4.40;;;;;;;;;;5076486;28;20057;-75
2022/02/07 16:31:49;;;;;;;9.18;4.93;;;;;;;;;;5069859;28;20059;-75
2022/02/07 16:34:18;;;;;;;6.53;3.97;;;;;;;;;;5065531;28;20449;-75
2022/02/07 16:36:45;;;;;;;8.85;4.07;;;;;;;;;;5074925;28;20029;-75
2022/02/07 16:39:13;;;;;;;11.73;5.60;;;;;;;;;;5056442;28;20438;-75
2022/02/07 16:41:41;;;;;;;7.63;4.70;;;;;;;;;;5056250;28;20406;-75
2022/02/07 16:44:11;;;;;;;11.25;6.07;;;;;;;;;;5056354;28;20029;-75
2022/02/07 16:46:48;;;;;;;6.72;4.05;;;;;;;;;;5056111;28;20033;-75
2022/02/07 16:49:27;;;;;;;8.88;4.72;;;;;;;;;;5056423;28;20027;-70
2022/02/07 16:51:57;;;;;;;6.60;3.90;;;;;;;;;;5056484;28;20031;-79
2022/02/07 16:54:29;;;;;;;8.05;3.53;;;;;;;;;;5054847;28;20040;-75
2022/02/07 16:56:57;;;;;;;6.40;4.50;;;;;;;;;;5053225;28;20029;-72
2022/02/07 16:59:23;;;;;;;12.48;6.55;;;;;;;;;;5054632;28;20364;-69
2022/02/07 17:01:53;;;;;;;12.50;6.35;;;;;;;;;;5055860;28;20120;-72
2022/02/07 17:04:26;;;;;;;4.27;3.00;;;;;;;;;;5055768;28;20387;-74
2022/02/07 17:06:52;;;;;;;8.45;4.30;;;;;;;;;;5071035;28;20028;-74
2022/02/07 17:09:17;;;;;;;6.20;3.70;;;;;;;;;;5055578;28;20100;-73
2022/02/07 17:11:43;;;;;;;6.00;3.38;;;;;;;;;;5055690;28;20025;-74
2022/02/07 17:14:12;;;;;;;4.90;3.00;;;;;;;;;;5055669;28;20025;-74
2022/02/07 17:16:38;;;;;;;4.80;2.95;;;;;;;;;;5055394;28;20033;-76
2022/02/07 17:19:05;;;;;;;5.30;3.33;;;;;;;;;;5055464;28;20387;-71
2022/02/07 17:21:31;;;;;;;5.45;3.20;;;;;;;;;;5055411;28;20040;-75
2022/02/07 17:23:56;;;;;;;6.45;3.92;;;;;;;;;;5055267;28;20017;-71
2022/02/07 17:26:22;;;;;;;6.93;4.10;;;;;;;;;;5053934;28;20033;-74
2022/02/07 17:28:48;;;;;;;5.68;3.45;;;;;;;;;;5055094;28;20471;-67
2022/02/07 17:31:14;;;;;;;5.72;3.63;;;;;;;;;;5055223;28;20037;-69
2022/02/07 17:33:39;;;;;;;7.13;3.53;;;;;;;;;;5053962;28;20383;-68
2022/02/07 17:36:06;;;;;;;7.57;3.67;;;;;;;;;;5054238;28;20037;-74
2022/02/07 17:38:32;;;;;;;6.90;4.20;;;;;;;;;;5053892;28;20023;-73
2022/02/07 17:40:59;;;;;;;4.65;3.42;;;;;;;;;;5055003;28;20031;-73
2022/02/07 17:43:44;;;;;;;5.90;2.92;;;;;;;;;;5054724;28;20023;-73
2022/02/07 17:46:10;;;;;;;5.93;3.55;;;;;;;;;;5070045;28;20033;-74
2022/02/07 17:48:36;;;;;;;6.15;3.22;;;;;;;;;;5053252;28;20025;-74
2022/02/07 17:51:02;;;;;;;8.38;4.25;;;;;;;;;;5054539;28;20037;-74